Accueil
METAR-TAF:

METAR-TAF

Aéroports :

Maré, Nouvelle-Calédonie

Aérodrome de Maré - La Roche

latitude: 21-28-53S, longitude: 168-02-15E, altitude: 42 m

METAR: absent

Heure: 00:52 (13:52 UTC)

Prévision

Le bulletin a été fait il y a 2 heures et 52 minutes, à 11:00 UTC
Prévision valable du 21 à 12 UTC au 22 à 12 UTC
Vent 2 kt de direction variable
Visibilité 10 km ou plus
Quelques nuages à une hauteur de 5000 ft
Evoluant progressivement
du 21 à 22 UTC au 21 à 24 UTC
Vent 10 kt de est/sud-est
Evoluant progressivement
du 22 à 06 UTC au 22 à 08 UTC
Vent 2 kt de direction variable

TAF: NWWR 211100Z 2112/2212 VRB02KT 9999 FEW050 BECMG 2122/2124 11010KT BECMG 2206/2208 VRB02KT

Observations et prévisions météorologiques de plus de 4000 aéroports (messages METAR et TAF).

Les stations disponibles sont représentées par des disques jaunes et rouges sur la carte.

Passer la souris dessus pour voir le nom de la station.

Cliquer dessus pour voir les observations et prévisions météorologiques.

Pour changer de carte: cliquez sur les boutons verts avec une croix noire pour zoomer, sur le bouton vert avec un tiret pour effectuer un zoom arrière, ou sur les flèches vertes pour les cartes adjacentes.


METAR-TAF: